Airport View

Enter AWOS ICAO identifier for current METAR.

ex. KFNL

K5SM 202235Z AUTO 24012G23KT 10SM CLR 11/M10 A3030 RMK AO2

20 Oct 2020 23:04

Frequency: 126.075

Phone: 970-384-3380

Other Area AWOS: KRIL - KEGE - KASE - KEEO

TAF KRIL 201720Z 2018/2118 29006KT P6SM FEW150 FM202000 27012G20KT P6SM FEW150 FM210100 23007KT P6SM FEW150 SCT200 FM210700 VRB03KT P6SM FEW150 SCT200